Time;durP1;ratioP1;P1;durP2;ratioP2;P2;SDS_P1;SDS_P2;PMS_P1;PMS_P2;Temp;Humidity;BMP_temperature;BMP_pressure;BME280_temperature;BME280_humidity;BME280_pressure;Samples;Min_cycle;Max_cycle;Signal;HPM_P1;HPM_P2
2021/07/18 00:00:01;;;;;;;2.85;0.35;;;18.50;58.70;;;;;;5094421;28;20055;-60
2021/07/18 00:02:28;;;;;;;1.95;0.47;;;18.50;59.30;;;;;;5099456;28;20027;-58
2021/07/18 00:04:56;;;;;;;1.33;0.38;;;18.70;59.20;;;;;;5092402;28;20479;-57
2021/07/18 00:07:23;;;;;;;0.77;0.30;;;18.80;58.90;;;;;;5088323;28;20063;-58
2021/07/18 00:09:51;;;;;;;0.85;0.38;;;18.80;58.30;;;;;;5093397;28;20096;-60
2021/07/18 00:12:18;;;;;;;0.50;0.30;;;19.00;57.90;;;;;;5097526;28;20043;-61
2021/07/18 00:14:46;;;;;;;1.95;0.50;;;19.10;57.20;;;;;;5093334;28;20502;-59
2021/07/18 00:17:14;;;;;;;2.63;0.50;;;19.20;56.60;;;;;;5090358;28;20074;-58
2021/07/18 00:19:42;;;;;;;1.95;0.45;;;19.30;56.80;;;;;;5094132;28;20024;-59
2021/07/18 00:22:09;;;;;;;0.85;0.30;;;19.30;56.70;;;;;;5091425;28;20019;-59
2021/07/18 00:24:40;;;;;;;0.47;0.30;;;19.50;55.70;;;;;;5093336;28;20070;-62
2021/07/18 00:27:08;;;;;;;0.80;0.30;;;19.60;56.30;;;;;;5094920;28;20043;-61
2021/07/18 00:29:35;;;;;;;1.20;0.52;;;19.50;56.30;;;;;;5096038;28;21101;-60
2021/07/18 00:32:05;;;;;;;1.45;0.43;;;19.60;56.20;;;;;;5096259;28;20039;-57
2021/07/18 00:34:33;;;;;;;1.00;0.57;;;19.70;56.70;;;;;;5094795;28;20068;-60
2021/07/18 00:37:01;;;;;;;1.02;0.20;;;19.70;56.10;;;;;;5092996;28;20027;-58
2021/07/18 00:39:28;;;;;;;0.17;0.15;;;19.80;55.00;;;;;;5084138;28;20032;-58
2021/07/18 00:41:56;;;;;;;1.23;0.30;;;19.90;55.60;;;;;;5083638;28;20031;-58
2021/07/18 00:44:23;;;;;;;0.20;0.20;;;19.80;55.90;;;;;;5084504;28;20032;-60
2021/07/18 00:46:50;;;;;;;1.17;0.40;;;19.80;56.50;;;;;;5083986;28;20078;-59
2021/07/18 00:49:18;;;;;;;0.75;0.22;;;19.90;55.60;;;;;;5083846;28;20028;-55
2021/07/18 00:51:45;;;;;;;0.35;0.20;;;19.90;55.00;;;;;;5085341;28;20051;-58
2021/07/18 00:54:13;;;;;;;1.02;0.25;;;19.90;56.10;;;;;;5088132;28;20106;-59
2021/07/18 00:56:41;;;;;;;0.50;0.25;;;20.00;55.00;;;;;;5087830;28;20036;-55
2021/07/18 00:59:09;;;;;;;0.50;0.20;;;20.20;54.40;;;;;;5069506;28;20631;-58
2021/07/18 01:01:36;;;;;;;1.85;0.30;;;20.10;56.10;;;;;;5087856;28;20032;-59
2021/07/18 01:04:04;;;;;;;1.23;0.50;;;20.10;55.70;;;;;;5087942;28;20028;-61
2021/07/18 01:06:31;;;;;;;0.43;0.40;;;20.20;55.70;;;;;;5087285;28;20027;-58
2021/07/18 01:08:59;;;;;;;0.38;0.20;;;20.30;54.00;;;;;;5087931;28;20036;-58
2021/07/18 01:11:26;;;;;;;1.33;0.70;;;20.30;55.00;;;;;;5087965;28;20398;-58
2021/07/18 01:13:53;;;;;;;0.57;0.30;;;20.40;55.00;;;;;;5087629;28;20059;-59
2021/07/18 01:16:21;;;;;;;0.57;0.20;;;20.50;54.10;;;;;;5087625;28;20466;-56
2021/07/18 01:18:48;;;;;;;1.05;0.40;;;20.40;54.90;;;;;;5087371;28;20112;-57
2021/07/18 01:21:16;;;;;;;0.20;0.15;;;20.60;54.70;;;;;;5087069;28;20016;-58
2021/07/18 01:23:43;;;;;;;0.93;0.50;;;20.70;54.80;;;;;;5087477;28;20035;-57
2021/07/18 01:26:11;;;;;;;0.75;0.30;;;20.60;53.60;;;;;;5087563;28;20036;-59
2021/07/18 01:28:38;;;;;;;0.32;0.13;;;20.80;54.90;;;;;;5087226;28;20044;-55
2021/07/18 01:31:07;;;;;;;1.75;0.30;;;20.70;54.40;;;;;;5086983;28;20076;-56
2021/07/18 01:33:34;;;;;;;0.95;0.40;;;20.80;53.50;;;;;;5086938;28;20354;-59
2021/07/18 01:36:02;;;;;;;3.22;0.30;;;20.90;53.50;;;;;;5086659;28;20415;-60
2021/07/18 01:38:29;;;;;;;0.43;0.30;;;21.10;53.70;;;;;;5086843;28;20028;-58
2021/07/18 01:40:56;;;;;;;3.45;0.32;;;21.10;54.50;;;;;;5086657;28;20071;-59
2021/07/18 01:43:24;;;;;;;0.70;0.50;;;21.00;54.90;;;;;;5087051;28;20083;-56
2021/07/18 01:45:51;;;;;;;2.22;0.43;;;21.10;53.50;;;;;;5086659;28;20132;-59
2021/07/18 01:48:19;;;;;;;0.77;0.20;;;21.20;54.60;;;;;;5085972;28;20058;-60
2021/07/18 01:50:46;;;;;;;0.45;0.10;;;21.20;54.30;;;;;;5086420;28;20036;-57
2021/07/18 01:53:13;;;;;;;2.00;0.35;;;21.20;54.70;;;;;;5086284;28;20032;-62
2021/07/18 01:55:41;;;;;;;5.38;0.80;;;21.20;54.90;;;;;;5086654;28;20540;-57
2021/07/18 01:58:08;;;;;;;1.55;0.10;;;21.10;54.20;;;;;;5086769;28;20028;-59
2021/07/18 02:00:37;;;;;;;1.30;0.22;;;21.20;53.50;;;;;;5086418;28;20038;-59
2021/07/18 02:03:04;;;;;;;1.40;0.30;;;21.30;55.30;;;;;;5084832;28;20051;-60
2021/07/18 02:05:32;;;;;;;1.73;0.22;;;21.30;55.50;;;;;;5085945;28;20073;-60
2021/07/18 02:07:59;;;;;;;1.10;0.30;;;21.30;55.20;;;;;;5086083;28;20025;-63
2021/07/18 02:10:26;;;;;;;1.13;0.30;;;21.40;54.80;;;;;;5086578;28;20102;-58
2021/07/18 02:12:54;;;;;;;5.63;0.50;;;21.50;54.60;;;;;;5086313;28;20054;-60
2021/07/18 02:15:22;;;;;;;2.92;0.30;;;21.60;54.20;;;;;;5086520;28;20024;-62
2021/07/18 02:17:50;;;;;;;2.30;0.45;;;21.50;53.80;;;;;;5086202;28;20024;-57
2021/07/18 02:20:23;;;;;;;1.00;0.38;;;21.50;54.60;;;;;;5086074;28;20044;-57
2021/07/18 02:22:56;;;;;;;0.88;0.22;;;21.60;54.30;;;;;;5086334;28;20025;-54
2021/07/18 02:25:29;;;;;;;1.60;0.30;;;21.70;54.50;;;;;;5086654;28;20035;-58
2021/07/18 02:27:57;;;;;;;0.55;0.20;;;21.80;54.40;;;;;;5086197;28;20158;-59
2021/07/18 02:30:27;;;;;;;0.50;0.30;;;21.80;53.00;;;;;;5090182;28;20039;-64
2021/07/18 02:32:55;;;;;;;1.13;0.35;;;21.90;54.20;;;;;;5110833;28;20026;-59
2021/07/18 02:35:24;;;;;;;0.50;0.30;;;21.90;54.20;;;;;;5110909;28;20115;-61
2021/07/18 02:37:52;;;;;;;0.93;0.40;;;22.00;54.80;;;;;;5111277;28;20027;-63
2021/07/18 02:40:21;;;;;;;1.73;0.30;;;22.00;54.50;;;;;;5111559;28;20038;-60
2021/07/18 02:42:49;;;;;;;0.20;0.20;;;22.00;52.40;;;;;;5100170;28;20443;-57
2021/07/18 02:45:20;;;;;;;0.50;0.20;;;21.90;54.80;;;;;;5097091;28;20410;-61
2021/07/18 02:47:48;;;;;;;0.65;0.35;;;22.00;54.20;;;;;;5100351;28;20093;-62
2021/07/18 02:50:19;;;;;;;1.23;0.50;;;22.20;52.50;;;;;;5097893;28;20032;-57
2021/07/18 02:52:46;;;;;;;3.72;0.30;;;22.40;51.80;;;;;;5096923;28;20032;-54
2021/07/18 02:55:15;;;;;;;0.40;0.15;;;22.30;52.00;;;;;;5099545;28;20048;-59
2021/07/18 02:57:43;;;;;;;0.80;0.30;;;22.30;53.80;;;;;;5100094;28;20060;-57
2021/07/18 03:00:18;;;;;;;1.08;0.30;;;22.40;52.10;;;;;;5080292;28;20058;-59
2021/07/18 03:02:46;;;;;;;0.20;0.20;;;22.50;53.40;;;;;;5094939;28;20571;-58
2021/07/18 03:05:14;;;;;;;0.70;0.35;;;22.40;53.80;;;;;;5098013;28;20111;-59
2021/07/18 03:07:43;;;;;;;1.48;0.50;;;22.50;53.00;;;;;;5082379;28;20024;-57
2021/07/18 03:10:12;;;;;;;4.03;0.50;;;22.40;53.00;;;;;;5101841;28;20456;-50
2021/07/18 03:12:40;;;;;;;2.28;0.40;;;22.50;52.70;;;;;;5092383;28;20048;-59
2021/07/18 03:15:11;;;;;;;0.52;0.15;;;22.60;51.30;;;;;;5098001;28;20019;-57
2021/07/18 03:17:39;;;;;;;0.20;0.20;;;22.60;51.60;;;;;;5102072;28;20491;-56
2021/07/18 03:20:09;;;;;;;2.20;0.45;;;22.70;51.10;;;;;;5098340;28;20023;-59
2021/07/18 03:22:36;;;;;;;1.05;0.30;;;22.70;51.00;;;;;;5095152;28;20048;-61
2021/07/18 03:25:06;;;;;;;5.55;0.80;;;22.70;50.90;;;;;;5082854;28;20133;-59
2021/07/18 03:27:35;;;;;;;1.23;0.30;;;22.70;50.90;;;;;;5101220;28;20100;-54
2021/07/18 03:30:03;;;;;;;0.77;0.30;;;22.60;52.30;;;;;;5095562;28;20035;-57
2021/07/18 03:32:30;;;;;;;1.02;0.40;;;22.50;50.60;;;;;;5098539;28;20606;-56
2021/07/18 03:34:58;;;;;;;0.68;0.30;;;22.40;53.40;;;;;;5092452;28;20057;-61
2021/07/18 03:37:25;;;;;;;0.55;0.22;;;22.50;53.40;;;;;;5096632;28;20094;-58
2021/07/18 03:39:53;;;;;;;1.02;0.40;;;22.40;51.20;;;;;;5100178;28;20035;-57
2021/07/18 03:42:21;;;;;;;0.75;0.30;;;22.50;51.30;;;;;;5096693;28;20110;-55
2021/07/18 03:44:48;;;;;;;0.75;0.40;;;22.40;54.00;;;;;;5101157;28;20039;-55
2021/07/18 03:47:15;;;;;;;0.43;0.30;;;22.40;51.40;;;;;;5099991;28;20032;-56
2021/07/18 03:49:43;;;;;;;0.15;0.10;;;22.30;53.60;;;;;;5096417;28;20035;-58
2021/07/18 03:52:11;;;;;;;0.43;0.20;;;22.30;51.50;;;;;;5078582;28;20526;-59
2021/07/18 03:54:38;;;;;;;1.50;0.50;;;22.30;53.60;;;;;;5105312;28;20032;-58
2021/07/18 03:57:11;;;;;;;0.77;0.20;;;22.20;52.80;;;;;;5092889;28;20114;-59
2021/07/18 03:59:39;;;;;;;1.70;0.30;;;22.30;52.80;;;;;;5100904;28;20032;-56
2021/07/18 04:02:06;;;;;;;0.35;0.25;;;22.40;52.40;;;;;;5095462;28;20036;-52
2021/07/18 04:04:36;;;;;;;3.30;0.50;;;22.50;53.10;;;;;;5101687;28;20023;-52
2021/07/18 04:07:04;;;;;;;0.35;0.13;;;22.50;52.60;;;;;;5102079;28;20031;-56
2021/07/18 04:09:31;;;;;;;0.75;0.30;;;22.60;50.60;;;;;;5099832;28;20478;-56
2021/07/18 04:11:58;;;;;;;0.60;0.22;;;22.60;51.60;;;;;;5099513;28;20040;-63
2021/07/18 04:14:26;;;;;;;0.47;0.20;;;22.70;51.20;;;;;;5094745;28;20133;-55
2021/07/18 04:16:53;;;;;;;2.70;0.40;;;22.70;51.40;;;;;;5078298;28;20557;-58
2021/07/18 04:19:20;;;;;;;0.35;0.28;;;22.80;51.00;;;;;;5080486;28;20209;-58
2021/07/18 04:21:49;;;;;;;0.52;0.15;;;22.90;50.40;;;;;;5105016;28;20124;-56
2021/07/18 04:24:16;;;;;;;0.50;0.30;;;22.90;52.60;;;;;;5104104;28;20107;-57
2021/07/18 04:26:44;;;;;;;3.08;0.43;;;22.80;52.60;;;;;;5088682;28;20028;-60
2021/07/18 04:29:11;;;;;;;1.08;0.32;;;22.90;52.30;;;;;;5109665;28;20106;-56
2021/07/18 04:31:39;;;;;;;1.65;0.45;;;22.90;52.90;;;;;;5106545;28;20036;-53
2021/07/18 04:34:06;;;;;;;1.60;0.30;;;22.70;48.20;;;;;;5102721;28;20093;-49
2021/07/18 04:36:33;;;;;;;2.20;0.38;;;22.60;47.60;;;;;;5100827;28;20135;-52
2021/07/18 04:39:01;;;;;;;0.93;0.40;;;22.50;49.30;;;;;;5103902;28;20110;-50
2021/07/18 04:41:29;;;;;;;1.02;0.30;;;22.50;51.00;;;;;;5101839;28;20031;-48
2021/07/18 04:43:57;;;;;;;2.42;0.47;;;22.40;49.80;;;;;;5095503;28;20023;-49
2021/07/18 04:46:24;;;;;;;0.93;0.25;;;22.40;48.60;;;;;;5106376;28;20028;-49
2021/07/18 04:48:51;;;;;;;2.47;0.50;;;22.30;48.40;;;;;;5081836;28;20028;-49
2021/07/18 04:51:19;;;;;;;0.82;0.60;;;22.30;47.70;;;;;;5100951;28;20036;-50
2021/07/18 04:53:46;;;;;;;1.77;0.75;;;22.20;48.60;;;;;;5098735;28;20020;-55
2021/07/18 04:56:14;;;;;;;1.55;0.40;;;22.20;48.90;;;;;;5099868;28;20162;-60
2021/07/18 04:58:42;;;;;;;0.60;0.32;;;22.00;50.80;;;;;;5104466;28;20036;-61
2021/07/18 05:01:09;;;;;;;0.38;0.30;;;21.90;51.90;;;;;;5105261;28;20386;-54
2021/07/18 05:03:37;;;;;;;0.82;0.45;;;21.90;52.40;;;;;;5097032;28;20158;-61
2021/07/18 05:06:05;;;;;;;0.85;0.40;;;22.00;52.50;;;;;;5104039;28;20024;-60
2021/07/18 05:08:34;;;;;;;0.80;0.47;;;22.10;53.00;;;;;;5082398;28;20046;-60
2021/07/18 05:11:03;;;;;;;1.38;0.40;;;22.20;51.40;;;;;;5099484;28;20104;-60
2021/07/18 05:13:30;;;;;;;0.63;0.30;;;22.30;50.70;;;;;;5084005;28;20511;-60
2021/07/18 05:15:58;;;;;;;2.58;0.30;;;22.40;53.30;;;;;;5094917;28;20032;-59
2021/07/18 05:18:25;;;;;;;3.83;0.43;;;22.50;50.30;;;;;;5100309;28;20023;-61
2021/07/18 05:20:53;;;;;;;0.55;0.32;;;22.50;51.40;;;;;;5101162;28;20035;-58
2021/07/18 05:23:21;;;;;;;0.80;0.40;;;22.60;52.60;;;;;;5098704;28;20057;-58
2021/07/18 05:25:48;;;;;;;1.23;0.88;;;22.70;51.90;;;;;;5079505;28;20090;-60
2021/07/18 05:28:16;;;;;;;0.43;0.40;;;22.70;52.50;;;;;;5100211;28;20388;-59
2021/07/18 05:30:44;;;;;;;0.50;0.30;;;22.80;49.80;;;;;;5102434;28;20036;-55
2021/07/18 05:33:12;;;;;;;0.88;0.40;;;22.80;49.20;;;;;;5097980;28;20035;-62
2021/07/18 05:35:39;;;;;;;0.70;0.45;;;22.80;50.10;;;;;;5098839;28;20031;-59
2021/07/18 05:38:07;;;;;;;0.20;0.20;;;22.80;51.80;;;;;;5102358;28;20035;-60
2021/07/18 05:40:35;;;;;;;0.50;0.40;;;22.70;51.60;;;;;;5095845;28;20034;-58
2021/07/18 05:43:03;;;;;;;0.90;0.50;;;22.60;51.10;;;;;;5099443;28;20031;-62
2021/07/18 05:45:31;;;;;;;0.98;0.30;;;22.60;50.70;;;;;;5102371;28;20031;-61
2021/07/18 05:47:58;;;;;;;1.05;0.38;;;22.60;49.90;;;;;;5099934;28;20047;-60
2021/07/18 05:50:25;;;;;;;0.20;0.20;;;22.40;49.30;;;;;;5098866;28;20036;-57
2021/07/18 05:52:53;;;;;;;1.05;0.30;;;22.20;51.20;;;;;;5095137;28;20122;-59
2021/07/18 05:55:22;;;;;;;0.75;0.40;;;21.90;50.70;;;;;;5099724;28;20034;-60
2021/07/18 05:57:53;;;;;;;0.20;0.13;;;21.70;51.20;;;;;;5100325;28;20045;-60
2021/07/18 06:00:21;;;;;;;0.35;0.28;;;21.40;52.50;;;;;;5107474;28;20495;-61
2021/07/18 06:02:49;;;;;;;0.90;0.50;;;21.20;52.80;;;;;;5111845;28;20095;-62
2021/07/18 06:05:16;;;;;;;0.52;0.30;;;21.00;52.50;;;;;;5111239;28;20028;-61
2021/07/18 06:07:43;;;;;;;0.32;0.30;;;20.80;54.00;;;;;;5111833;28;20032;-58
2021/07/18 06:10:12;;;;;;;1.13;0.40;;;20.60;54.80;;;;;;5110994;28;20433;-60
2021/07/18 06:12:39;;;;;;;5.47;0.55;;;20.40;55.10;;;;;;5110879;28;20080;-59
2021/07/18 06:15:08;;;;;;;0.52;0.30;;;20.20;53.30;;;;;;5111274;28;20559;-60
2021/07/18 06:17:37;;;;;;;0.73;0.40;;;20.00;55.30;;;;;;5111550;28;20386;-63
2021/07/18 06:20:09;;;;;;;2.70;0.50;;;19.90;56.20;;;;;;5111175;28;20020;-62
2021/07/18 06:22:37;;;;;;;2.45;0.50;;;19.70;56.70;;;;;;5111092;28;20057;-57
2021/07/18 06:25:06;;;;;;;5.93;0.20;;;19.60;55.40;;;;;;5100573;28;20050;-54
2021/07/18 06:27:35;;;;;;;0.22;0.20;;;19.40;58.00;;;;;;5099073;28;20428;-55
2021/07/18 06:30:03;;;;;;;0.50;0.30;;;19.30;59.10;;;;;;5079690;28;20422;-59
2021/07/18 06:32:30;;;;;;;0.82;0.30;;;19.20;57.20;;;;;;5097981;28;20039;-58
2021/07/18 06:34:58;;;;;;;0.50;0.40;;;19.10;58.10;;;;;;5098217;28;20036;-56
2021/07/18 06:37:25;;;;;;;1.52;0.50;;;19.00;58.60;;;;;;5079494;28;20131;-56
2021/07/18 06:39:52;;;;;;;0.63;0.30;;;19.00;58.70;;;;;;5096636;28;20027;-56
2021/07/18 06:42:20;;;;;;;0.77;0.50;;;18.90;58.30;;;;;;5096884;28;20036;-56
2021/07/18 06:44:48;;;;;;;0.55;0.30;;;18.80;59.30;;;;;;5103049;28;20030;-61
2021/07/18 06:47:15;;;;;;;1.52;0.70;;;18.70;60.90;;;;;;5094855;28;20089;-58
2021/07/18 06:49:42;;;;;;;1.58;0.75;;;18.70;59.00;;;;;;5100705;28;20387;-61
2021/07/18 06:52:11;;;;;;;1.95;0.43;;;18.50;59.80;;;;;;5099351;28;20044;-54
2021/07/18 06:54:38;;;;;;;1.17;0.50;;;18.40;62.20;;;;;;5100313;28;20618;-56
2021/07/18 06:57:06;;;;;;;1.75;1.10;;;18.40;62.10;;;;;;5105493;28;20042;-59
2021/07/18 06:59:33;;;;;;;1.38;0.43;;;18.40;62.10;;;;;;5095076;28;20019;-58
2021/07/18 07:02:01;;;;;;;1.20;0.55;;;18.30;61.60;;;;;;5102421;28;20062;-55
2021/07/18 07:04:28;;;;;;;0.80;0.38;;;18.20;59.20;;;;;;5094859;28;20042;-61
2021/07/18 07:06:55;;;;;;;3.50;0.70;;;18.20;59.70;;;;;;5101749;28;20035;-59
2021/07/18 07:09:23;;;;;;;1.05;0.60;;;18.20;59.40;;;;;;5101003;28;20508;-61
2021/07/18 07:11:50;;;;;;;0.77;0.63;;;18.20;62.30;;;;;;5103232;28;20078;-58
2021/07/18 07:14:17;;;;;;;0.98;0.47;;;18.10;58.20;;;;;;5098953;28;20131;-55
2021/07/18 07:16:45;;;;;;;2.63;0.70;;;18.10;62.30;;;;;;5097882;28;20043;-56
2021/07/18 07:19:12;;;;;;;2.90;1.10;;;18.00;60.80;;;;;;5099143;28;20035;-57
2021/07/18 07:21:40;;;;;;;0.57;0.30;;;18.00;61.90;;;;;;5093818;28;20059;-55
2021/07/18 07:24:07;;;;;;;0.85;0.50;;;18.00;63.90;;;;;;5099478;28;20032;-59
2021/07/18 07:26:35;;;;;;;1.77;0.63;;;17.90;62.10;;;;;;5097501;28;20383;-56
2021/07/18 07:29:03;;;;;;;0.70;0.60;;;17.90;62.20;;;;;;5098276;28;20035;-60
2021/07/18 07:31:30;;;;;;;0.80;0.50;;;17.80;62.60;;;;;;5098366;28;20042;-60
2021/07/18 07:33:57;;;;;;;1.58;0.50;;;17.80;63.20;;;;;;5101570;28;20032;-59
2021/07/18 07:36:25;;;;;;;1.05;0.63;;;17.80;63.50;;;;;;5103742;28;20038;-61
2021/07/18 07:38:52;;;;;;;1.33;0.50;;;17.70;63.20;;;;;;5098384;28;20023;-55
2021/07/18 07:41:21;;;;;;;1.40;0.80;;;17.70;62.30;;;;;;5099368;28;20027;-61
2021/07/18 07:43:48;;;;;;;1.33;0.77;;;17.70;63.40;;;;;;5098842;28;20028;-56
2021/07/18 07:46:16;;;;;;;1.33;0.80;;;17.70;63.30;;;;;;5096192;28;20758;-57
2021/07/18 07:48:43;;;;;;;3.33;0.40;;;17.60;62.20;;;;;;5097833;28;20016;-59
2021/07/18 07:51:10;;;;;;;2.00;0.60;;;17.50;63.80;;;;;;5095156;28;20416;-58
2021/07/18 07:53:38;;;;;;;0.77;0.68;;;17.50;63.60;;;;;;5102371;28;20115;-57
2021/07/18 07:56:05;;;;;;;2.70;0.57;;;17.40;63.90;;;;;;5098258;28;20035;-60
2021/07/18 07:58:34;;;;;;;1.33;0.60;;;17.40;64.50;;;;;;5095476;28;20398;-58
2021/07/18 08:01:01;;;;;;;0.90;0.50;;;17.40;64.50;;;;;;5097314;28;20035;-59
2021/07/18 08:03:29;;;;;;;0.60;0.50;;;17.30;64.70;;;;;;5099268;28;20028;-56
2021/07/18 08:05:56;;;;;;;1.05;0.55;;;17.30;64.70;;;;;;5095627;28;20440;-58
2021/07/18 08:08:24;;;;;;;0.85;0.40;;;17.30;65.50;;;;;;5100750;28;20034;-58
2021/07/18 08:10:51;;;;;;;4.22;0.75;;;17.20;65.50;;;;;;5099029;28;20049;-57
2021/07/18 08:13:19;;;;;;;0.60;0.60;;;17.10;65.70;;;;;;5099312;28;20039;-57
2021/07/18 08:15:46;;;;;;;1.20;0.70;;;17.10;65.50;;;;;;5090680;28;20130;-59
2021/07/18 08:18:13;;;;;;;1.02;0.52;;;17.10;64.80;;;;;;5099527;28;20098;-57
2021/07/18 08:20:41;;;;;;;0.63;0.57;;;17.10;65.50;;;;;;5092749;28;20131;-60
2021/07/18 08:23:08;;;;;;;1.63;1.00;;;17.10;65.90;;;;;;5096973;28;20270;-60
2021/07/18 08:25:36;;;;;;;1.55;0.77;;;17.00;66.10;;;;;;5099958;28;20028;-55
2021/07/18 08:28:03;;;;;;;0.77;0.60;;;17.00;65.30;;;;;;5089734;28;20384;-58
2021/07/18 08:30:30;;;;;;;0.90;0.40;;;17.00;66.20;;;;;;5099963;28;20031;-57
2021/07/18 08:32:58;;;;;;;0.98;0.60;;;17.00;65.90;;;;;;5095504;28;20139;-60
2021/07/18 08:35:25;;;;;;;0.68;0.65;;;17.00;65.00;;;;;;5100126;28;20024;-61
2021/07/18 08:37:52;;;;;;;3.05;1.63;;;17.00;66.10;;;;;;5093130;28;20028;-59
2021/07/18 08:40:20;;;;;;;1.27;0.68;;;17.00;66.50;;;;;;5093026;28;20101;-55
2021/07/18 08:42:47;;;;;;;2.40;1.23;;;17.00;66.60;;;;;;5092025;28;20089;-60
2021/07/18 08:45:15;;;;;;;0.88;0.70;;;17.00;66.40;;;;;;5089006;28;20546;-59
2021/07/18 08:47:42;;;;;;;1.38;0.93;;;17.00;66.70;;;;;;5088869;28;20044;-55
2021/07/18 08:50:13;;;;;;;2.65;1.17;;;17.00;66.80;;;;;;5088788;28;20050;-60
2021/07/18 08:52:41;;;;;;;2.30;1.13;;;16.90;66.80;;;;;;5089046;28;20089;-57
2021/07/18 08:55:09;;;;;;;3.38;1.10;;;16.90;66.90;;;;;;5088662;28;20514;-62
2021/07/18 08:57:38;;;;;;;4.55;1.45;;;16.90;67.20;;;;;;5089040;28;20031;-57
2021/07/18 09:00:06;;;;;;;3.00;1.67;;;16.80;67.50;;;;;;5088897;28;20103;-56
2021/07/18 09:02:34;;;;;;;4.53;1.75;;;16.90;67.60;;;;;;5087796;28;20028;-61
2021/07/18 09:05:02;;;;;;;5.10;2.08;;;16.80;67.60;;;;;;5088423;28;20056;-58
2021/07/18 09:07:29;;;;;;;1.92;1.30;;;16.80;67.60;;;;;;5088107;28;20024;-59
2021/07/18 09:10:06;;;;;;;3.17;1.58;;;16.80;67.40;;;;;;5088889;28;20505;-57
2021/07/18 09:12:34;;;;;;;3.92;1.40;;;16.70;67.40;;;;;;5084075;28;20093;-58
2021/07/18 09:15:01;;;;;;;3.58;1.98;;;16.70;67.20;;;;;;5099726;28;20102;-57
2021/07/18 09:17:37;;;;;;;1.63;1.13;;;16.70;67.10;;;;;;5101433;28;20043;-57
2021/07/18 09:20:19;;;;;;;2.63;1.35;;;16.70;67.50;;;;;;5086424;28;20027;-52
2021/07/18 09:22:46;;;;;;;2.38;0.93;;;16.60;67.90;;;;;;5099064;28;20828;-57
2021/07/18 09:25:14;;;;;;;1.80;1.08;;;16.60;67.70;;;;;;5105406;28;20485;-54
2021/07/18 09:27:42;;;;;;;1.20;0.90;;;16.60;67.40;;;;;;5096985;28;20146;-56
2021/07/18 09:30:18;;;;;;;1.90;0.88;;;16.60;67.90;;;;;;5102582;28;20553;-55
2021/07/18 09:32:50;;;;;;;1.17;1.00;;;16.60;67.80;;;;;;5100272;28;20036;-56
2021/07/18 09:35:18;;;;;;;2.28;1.00;;;16.50;67.90;;;;;;5099695;28;20066;-58
2021/07/18 09:37:55;;;;;;;1.75;1.00;;;16.50;67.80;;;;;;5096497;28;20733;-61
2021/07/18 09:40:27;;;;;;;2.70;1.50;;;16.50;68.30;;;;;;5096004;28;20596;-59
2021/07/18 09:42:59;;;;;;;1.55;0.80;;;16.50;68.20;;;;;;5104949;28;20390;-55
2021/07/18 09:45:30;;;;;;;1.98;1.05;;;16.50;68.60;;;;;;5095878;28;20039;-59
2021/07/18 09:48:09;;;;;;;2.13;1.15;;;16.50;68.00;;;;;;5101266;28;20028;-58
2021/07/18 09:50:46;;;;;;;3.38;1.08;;;16.50;68.20;;;;;;5099593;28;20822;-55
2021/07/18 09:53:19;;;;;;;2.30;1.30;;;16.50;68.30;;;;;;5096481;28;20093;-61
2021/07/18 09:56:17;;;;;;;1.90;1.10;;;16.50;68.80;;;;;;5101883;28;20333;-57
2021/07/18 09:58:56;;;;;;;1.17;1.05;;;16.50;68.80;;;;;;5103064;28;20046;-60
2021/07/18 10:01:25;;;;;;;1.40;1.00;;;16.40;68.80;;;;;;5099609;28;20106;-60
2021/07/18 10:03:55;;;;;;;1.50;0.98;;;16.40;68.70;;;;;;5100432;28;20049;-56
2021/07/18 10:06:27;;;;;;;1.95;1.02;;;16.40;69.00;;;;;;5098514;28;20031;-53
2021/07/18 10:09:00;;;;;;;1.08;0.90;;;16.50;69.00;;;;;;5101862;28;20024;-56
2021/07/18 10:11:29;;;;;;;1.75;1.00;;;16.40;68.80;;;;;;5089338;28;20093;-59
2021/07/18 10:13:59;;;;;;;1.30;0.95;;;16.40;68.50;;;;;;5082552;28;20028;-60
2021/07/18 10:16:29;;;;;;;1.75;0.95;;;16.40;68.60;;;;;;5100486;28;20019;-59
2021/07/18 10:18:57;;;;;;;1.77;0.90;;;16.40;67.60;;;;;;5099664;28;20098;-62
2021/07/18 10:21:27;;;;;;;1.58;0.82;;;16.40;68.70;;;;;;5107033;28;20039;-53
2021/07/18 10:23:57;;;;;;;1.10;0.88;;;16.40;68.70;;;;;;5094363;28;20038;-57
2021/07/18 10:26:30;;;;;;;1.52;0.90;;;16.40;68.40;;;;;;5096202;28;20024;-52
2021/07/18 10:28:58;;;;;;;1.42;1.00;;;16.40;68.80;;;;;;5100252;28;20051;-61
2021/07/18 10:31:58;;;;;;;3.13;1.25;;;16.30;68.40;;;;;;5077530;28;20051;-61
2021/07/18 10:34:31;;;;;;;2.05;0.98;;;16.30;68.70;;;;;;5101078;28;20044;-60
2021/07/18 10:36:58;;;;;;;1.90;1.20;;;16.30;68.50;;;;;;5099600;28;20402;-61
2021/07/18 10:39:37;;;;;;;1.38;0.98;;;16.30;68.40;;;;;;5105075;28;20478;-61
2021/07/18 10:42:36;;;;;;;2.28;1.27;;;16.30;68.40;;;;;;5099528;28;20135;-59
2021/07/18 10:45:26;;;;;;;2.42;1.17;;;16.20;68.60;;;;;;5099961;28;20050;-57
2021/07/18 10:48:09;;;;;;;1.13;1.02;;;16.20;68.50;;;;;;5078225;28;20066;-60
2021/07/18 10:50:47;;;;;;;1.40;1.02;;;16.20;68.40;;;;;;5107376;28;20096;-60
2021/07/18 10:53:22;;;;;;;2.28;0.88;;;16.20;68.40;;;;;;5108056;28;20040;-63
2021/07/18 10:55:51;;;;;;;1.92;0.98;;;16.20;68.60;;;;;;5106758;28;20429;-56
2021/07/18 10:58:40;;;;;;;1.58;0.95;;;16.20;68.70;;;;;;5098482;28;20494;-58
2021/07/18 11:01:11;;;;;;;2.10;1.20;;;16.20;68.60;;;;;;5098363;28;20024;-61
2021/07/18 11:03:44;;;;;;;3.08;1.25;;;16.10;68.70;;;;;;5101008;28;20027;-60
2021/07/18 11:06:31;;;;;;;1.65;1.00;;;16.10;68.60;;;;;;5110406;28;20067;-56
2021/07/18 11:09:14;;;;;;;2.30;0.95;;;16.10;68.60;;;;;;5100320;28;20394;-55
2021/07/18 11:11:40;;;;;;;;;;;16.10;68.70;;;;;;5106366;28;20111;-54
2021/07/18 11:14:24;;;;;;;2.10;0.93;;;16.10;68.90;;;;;;5105952;28;19930;-55
2021/07/18 11:16:57;;;;;;;1.65;1.05;;;16.10;69.00;;;;;;5105963;28;20027;-55
2021/07/18 11:19:39;;;;;;;1.33;0.80;;;16.00;68.80;;;;;;5105386;28;20050;-57
2021/07/18 11:22:09;;;;;;;1.42;0.90;;;16.00;68.90;;;;;;5105644;28;20027;-58
2021/07/18 11:24:56;;;;;;;1.73;0.77;;;16.00;68.70;;;;;;5105811;28;20028;-57
2021/07/18 11:27:33;;;;;;;2.33;1.10;;;16.00;68.80;;;;;;5105418;28;20388;-58
2021/07/18 11:30:03;;;;;;;1.50;1.05;;;16.00;69.10;;;;;;5087167;28;20024;-58
2021/07/18 11:32:33;;;;;;;3.03;1.00;;;15.90;69.00;;;;;;5105502;28;20031;-52
2021/07/18 11:35:01;;;;;;;3.13;1.05;;;15.90;69.00;;;;;;5105397;28;20100;-61
2021/07/18 11:37:36;;;;;;;2.38;1.10;;;15.90;69.20;;;;;;5105023;28;20027;-57
2021/07/18 11:40:09;;;;;;;1.85;0.95;;;15.90;69.00;;;;;;5105419;28;20390;-57
2021/07/18 11:42:36;;;;;;;2.70;0.98;;;15.80;69.00;;;;;;5105310;28;20474;-57
2021/07/18 11:45:09;;;;;;;1.33;0.95;;;15.80;69.30;;;;;;5105405;28;20024;-58
2021/07/18 11:47:36;;;;;;;2.47;1.15;;;15.80;69.30;;;;;;5105484;28;20084;-57
2021/07/18 11:50:08;;;;;;;1.65;1.05;;;15.80;69.40;;;;;;5105272;28;20367;-58
2021/07/18 11:52:40;;;;;;;1.13;0.90;;;15.80;69.30;;;;;;5104881;28;20393;-58
2021/07/18 11:55:09;;;;;;;1.55;0.88;;;15.80;69.30;;;;;;5105806;28;20401;-56
2021/07/18 11:57:42;;;;;;;1.67;1.35;;;15.70;69.20;;;;;;5105108;28;20027;-59
2021/07/18 12:00:10;;;;;;;1.73;1.02;;;15.70;69.50;;;;;;5104977;28;20546;-56
2021/07/18 12:02:40;;;;;;;1.27;0.88;;;15.70;69.50;;;;;;5104915;28;20031;-55
2021/07/18 12:05:08;;;;;;;2.13;0.80;;;15.70;69.40;;;;;;5105500;28;20474;-58
2021/07/18 12:07:35;;;;;;;2.13;1.23;;;15.70;69.50;;;;;;5104790;28;20024;-59
2021/07/18 12:10:22;;;;;;;2.33;1.08;;;15.70;69.70;;;;;;5104759;28;20027;-55
2021/07/18 12:12:49;;;;;;;1.42;1.00;;;15.60;69.70;;;;;;5105233;28;20036;-59
2021/07/18 12:15:17;;;;;;;2.13;0.85;;;15.60;69.70;;;;;;5105248;28;20028;-55
2021/07/18 12:17:44;;;;;;;3.53;1.00;;;15.60;69.60;;;;;;5105377;28;20057;-56
2021/07/18 12:20:24;;;;;;;4.28;0.98;;;15.60;69.60;;;;;;5104838;28;20027;-58
2021/07/18 12:22:52;;;;;;;1.33;0.95;;;15.50;69.50;;;;;;5086265;28;20077;-58
2021/07/18 12:25:19;;;;;;;1.23;0.70;;;15.60;69.70;;;;;;5105291;28;20482;-57
2021/07/18 12:27:47;;;;;;;2.25;1.05;;;15.60;69.80;;;;;;5105025;28;20550;-60
2021/07/18 12:30:15;;;;;;;0.90;0.70;;;15.50;69.80;;;;;;5105740;28;20023;-56
2021/07/18 12:32:42;;;;;;;2.58;0.73;;;15.50;69.70;;;;;;5104732;28;20039;-54
2021/07/18 12:35:10;;;;;;;2.08;0.70;;;15.50;69.70;;;;;;5086720;28;20024;-54
2021/07/18 12:37:38;;;;;;;1.58;0.90;;;15.50;69.50;;;;;;5104889;28;20026;-52
2021/07/18 12:40:06;;;;;;;1.50;0.95;;;15.50;69.50;;;;;;5105025;28;20020;-52
2021/07/18 12:42:35;;;;;;;1.42;0.75;;;15.50;69.70;;;;;;5104789;28;20573;-50
2021/07/18 12:45:11;;;;;;;2.65;0.98;;;15.40;69.70;;;;;;5105081;28;20115;-50
2021/07/18 12:47:47;;;;;;;1.17;0.90;;;15.40;69.70;;;;;;5105938;28;20496;-52
2021/07/18 12:50:29;;;;;;;1.00;0.85;;;15.40;69.80;;;;;;5093719;28;20482;-57
2021/07/18 12:52:59;;;;;;;1.88;0.90;;;15.40;69.80;;;;;;5088291;28;20088;-56
2021/07/18 12:55:39;;;;;;;0.93;0.80;;;15.40;69.90;;;;;;5088227;28;20501;-57
2021/07/18 12:58:17;;;;;;;2.75;1.13;;;15.40;69.80;;;;;;5088099;28;20024;-56